San Roque, Spain
Current Conditions -  °F | °C
As of 2:00 AM on Monday 24 Nov 2014 (Local Time) from LEAG Reporting Station
Heavy Rain Heavy Rain  
Wind Chill: 63°   Ceiling: Unl
Heat Index: 63°   Visibility: 5mi
Dew Point: 59°   Wind: 5mph
Humidity: 88%   Direction: 270°W
Pressure: 29.88"   Gusts: NA
Location:  36.21°N, 5.38°W
Report Text: LEAG 240100Z AUTO 27004KT 210V310 8000 +RA NCD 17/15 Q1012
Loading
Personal Weather Stations






























Interactive Weather Map New forecast layout! Learn more

10-Day Weather Forecast

Advertisements
Track Severe Weather on mobile